Latest Coastal Weather Observations for Double Island Point

IDQ60701

Issued at 2:15 am EST Saturday 25 October 2014 (issued every 10 minutes, with the page automatically refreshed every 10 minutes)

About coastal observations | Map of coastal stations | Coastal observations for QLD | Marine services | Other Formats
Station Details ID: 040068 Name: DOUBLE ISLAND POINT LIGHTHOUSE Lat: -25.93 Lon: 153.19 Height: 95.64 m
Data from the previous 72 hours. | See also: Recent months at Double Island Point
Date/Time
EST
Temp

°C
Wind Pressure Rain
since 9am
mm
Weather Cloud Vis
km
Sea
Height
m
Swell
Dir
 
Speed
knots
Gust
knots
hPa Trend Height
m
Period
s
Dir
25/02:00am 19.7 NNE 13 15 1019.4 - 0.0 - - - - - - -
25/01:30am 19.4 NNE 10 14 1019.6 - 0.0 - - - - - - -
25/01:00am 19.4 NNE 9 11 1020.0 - 0.0 - - - - - - -
25/12:30am 19.3 NNE 7 10 1020.6 - 0.0 - - - - - - -
25/12:00am 19.4 NE 7 10 1020.9 - 0.0 - - - - - - -
 
Date/Time
EST
Temp

°C
Wind Pressure Rain
since 9am
mm
Weather Cloud Vis
km
Sea
Height
m
Swell
Dir
 
Speed
knots
Gust
knots
hPa Trend Height
m
Period
s
Dir
24/11:30pm 19.5 NNE 9 11 1021.2 - 0.0 - - - - - - -
24/11:00pm 19.5 NE 9 13 1021.5 - 0.0 - - - - - - -
24/10:30pm 19.6 NNE 9 13 1021.5 - 0.0 - - - - - - -
24/10:00pm 19.7 NE 9 13 1021.8 - 0.0 - - - - - - -
24/09:30pm 19.7 NE 9 12 1022.1 - 0.0 - - - - - - -
24/09:00pm 19.8 NE 9 14 1022.3 - 0.0 - - - - - - -
24/08:30pm 19.9 NNE 8 12 1022.2 - 0.0 - - - - - - -
24/08:00pm 20.0 NE 10 13 1021.9 - 0.0 - - - - - - -
24/07:30pm 20.1 NE 10 14 1021.5 - 0.0 - - - - - - -
24/07:00pm 20.3 NE 11 15 1021.4 - 0.0 - - - - - - -
24/06:30pm 20.3 NE 10 14 1021.1 - 0.0 - - - - - - -
24/06:00pm 20.5 NE 10 16 1020.9 - 0.0 - - - - - - -
24/05:30pm 21.3 NE 10 13 1020.8 - 0.0 - - - - - - -
24/05:00pm 21.7 NE 10 15 1020.6 - 0.0 - - - - - - -
24/04:30pm 22.0 ENE 10 12 1020.6 - 0.0 - - - - - - -
24/04:00pm 22.6 ENE 10 13 1020.4 - 0.0 - - - - - - -
24/03:30pm 22.9 ENE 10 14 1020.0 - 0.0 - - - - - - -
24/03:00pm 23.3 E 10 13 1020.1 - 0.0 - - - - - - -
24/02:30pm 23.9 E 10 13 1020.3 - 0.0 - - - - - - -
24/02:00pm 23.8 E 10 13 1020.4 - 0.0 - - - - - - -
24/01:30pm 23.6 E 8 13 1020.6 - 0.0 - - - - - - -
24/01:00pm 24.2 E 7 9 1020.9 - 0.0 - - - - - - -
24/12:30pm 24.6 E 7 9 1021.2 - 0.0 - - - - - - -
24/12:00pm 25.0 E 8 10 1021.7 - 0.0 - - - - - - -
24/11:30am 24.4 E 7 10 1021.9 - 0.0 - - - - - - -
24/11:00am 25.0 E 7 9 1022.2 - 0.0 - - - - - - -
24/10:30am 24.9 ESE 7 10 1022.3 - 0.0 - - - - - - -
24/10:00am 24.5 E 7 9 1022.6 - 0.0 - - - - - - -
24/09:30am 24.1 E 7 9 1022.9 - 0.0 - - - - - - -
24/09:00am 23.1 E 6 8 1023.0 - 0.0 - - - - - - -
24/08:30am 23.6 E 7 10 1022.8 - 0.0 - - - - - - -
24/08:00am 23.3 E 7 9 1022.4 - 0.0 - - - - - - -
24/07:30am 22.8 ENE 7 9 1022.0 - 0.0 - - - - - - -
24/07:00am 22.6 ENE 7 9 1022.0 - 0.0 - - - - - - -
24/06:30am 21.7 ENE 8 11 1021.6 - 0.0 - - - - - - -
24/06:00am 19.8 E 4 5 1021.6 - 0.0 - - - - - - -
24/05:30am 19.1 SW 6 7 1021.5 - 0.0 - - - - - - -
24/05:00am 18.8 W 5 6 1020.8 - 0.0 - - - - - - -
24/04:30am 18.5 W 3 5 1020.6 - 0.0 - - - - - - -
24/04:00am 19.1 NNE 8 11 1020.2 - 0.0 - - - - - - -
24/03:30am 19.2 N 8 11 1020.2 - 0.0 - - - - - - -
24/03:00am 19.0 NNE 7 11 1020.1 - 0.0 - - - - - - -
24/02:30am 19.2 NNE 8 10 1020.4 - 0.0 - - - - - - -
24/02:00am 19.0 NNE 8 11 1020.5 - 0.0 - - - - - - -
24/01:30am 19.0 NNE 8 10 1020.5 - 0.0 - - - - - - -
24/01:00am 19.1 NNE 8 11 1020.7 - 0.0 - - - - - - -
24/12:30am 19.0 NNE 8 11 1020.9 - 0.0 - - - - - - -
24/12:00am 19.0 NNE 7 10 1021.1 - 0.0 - - - - - - -
 
Date/Time
EST
Temp

°C
Wind Pressure Rain
since 9am
mm
Weather Cloud Vis
km
Sea
Height
m
Swell
Dir
 
Speed
knots
Gust
knots
hPa Trend Height
m
Period
s
Dir
23/11:30pm 19.0 NNE 10 13 1021.1 - 0.0 - - - - - - -
23/11:00pm 19.1 NE 8 12 1021.3 - 0.0 - - - - - - -
23/10:30pm 19.1 NNE 9 13 1021.4 - 0.0 - - - - - - -
23/10:00pm 19.3 NNE 10 15 1021.3 - 0.0 - - - - - - -
23/09:30pm 19.5 NE 10 15 1021.2 - 0.0 - - - - - - -
23/09:00pm 19.5 NE 9 13 1021.2 - 0.0 - - - - - - -
23/08:30pm 19.7 ENE 10 13 1020.9 - 0.0 - - - - - - -
23/08:00pm 19.7 NE 11 15 1020.6 - 0.0 - - - - - - -
23/07:30pm 19.6 NE 10 13 1020.1 - 0.0 - - - - - - -
23/07:00pm 19.8 NE 11 15 1019.6 - 0.0 - - - - - - -
23/06:30pm 19.8 NE 11 14 1019.5 - 0.0 - - - - - - -
23/06:00pm 19.9 ENE 11 15 1019.0 - 0.0 - - - - - - -
23/05:30pm 20.3 ENE 11 13 1018.8 - 0.0 - - - - - - -
23/05:00pm 20.7 ENE 12 15 1018.5 - 0.0 - - - - - - -
23/04:30pm 21.3 ENE 11 15 1018.4 - 0.0 - - - - - - -
23/04:00pm 21.5 ENE 13 15 1018.2 - 0.0 - - - - - - -
23/03:30pm 21.6 ENE 13 16 1018.1 - 0.0 - - - - - - -
23/03:00pm 22.7 E 13 15 1018.2 - 0.0 - - - - - - -
23/02:30pm 22.8 E 13 16 1018.3 - 0.0 - - - - - - -
23/02:00pm 23.4 E 11 13 1018.6 - 0.0 - - - - - - -
23/01:30pm 22.9 ESE 11 13 1019.2 - 0.0 - - - - - - -
23/01:00pm 23.3 ESE 10 12 1019.5 - 0.0 - - - - - - -
23/12:30pm 22.7 SE 10 13 1020.0 - 0.0 - - - - - - -
23/12:00pm 23.2 SSE 11 13 1020.5 - 0.0 - - - - - - -
23/11:30am 23.2 SE 9 12 1021.0 - 0.0 - - - - - - -
23/11:00am 23.2 SE 8 10 1021.4 - 0.0 - - - - - - -
23/10:30am 23.8 ESE 9 10 1021.8 - 0.0 - - - - - - -
23/10:00am 24.2 ESE 9 11 1021.8 - 0.0 - - - - - - -
23/09:30am 22.9 ESE 9 12 1021.9 - 0.0 - - - - - - -
23/09:00am 22.2 ESE 9 11 1021.9 - 0.0 - - - - - - -
23/08:30am 22.8 ESE 9 11 1022.1 - 0.0 - - - - - - -
23/08:00am 21.9 ESE 9 12 1022.1 - 0.0 - - - - - - -
23/07:30am 21.9 ESE 9 12 1021.9 - 0.0 - - - - - - -
23/07:00am 21.3 ESE 11 14 1021.6 - 0.0 - - - - - - -
23/06:30am 20.5 E 11 13 1021.4 - 0.0 - - - - - - -
23/06:00am 19.3 SE 10 12 1021.4 - 0.0 - - - - - - -
23/05:30am 19.1 SE 9 11 1021.3 - 0.0 - - - - - - -
23/05:00am 18.3 SE 10 13 1021.2 - 0.0 - - - - - - -
23/04:30am 18.4 SE 10 13 1021.0 - 0.0 - - - - - - -
23/04:00am 18.3 ESE 9 12 1020.9 - 0.0 - - - - - - -
23/03:30am 18.2 ESE 9 12 1020.7 - 0.0 - - - - - - -
23/03:00am 18.4 ESE 13 15 1020.5 - 0.0 - - - - - - -
23/02:30am 18.5 ESE 14 17 1020.5 - 0.0 - - - - - - -
23/02:00am 18.5 ESE 14 18 1020.5 - 0.0 - - - - - - -
23/01:30am 18.7 ESE 15 18 1020.9 - 0.0 - - - - - - -
23/01:00am 18.8 ESE 15 18 1021.2 - 0.0 - - - - - - -
23/12:30am 18.9 ESE 16 20 1021.6 - 0.0 - - - - - - -
23/12:00am 18.8 ESE 15 18 1021.9 - 0.0 - - - - - - -
 
Date/Time
EST
Temp

°C
Wind Pressure Rain
since 9am
mm
Weather Cloud Vis
km
Sea
Height
m
Swell
Dir
 
Speed
knots
Gust
knots
hPa Trend Height
m
Period
s
Dir
22/11:30pm 18.9 ESE 15 20 1022.1 - 0.0 - - - - - - -
22/11:00pm 18.9 ESE 15 19 1022.3 - 0.0 - - - - - - -
22/10:30pm 19.0 ESE 17 20 1022.4 - 0.0 - - - - - - -
22/10:00pm 19.2 ESE 19 22 1022.5 - 0.0 - - - - - - -
22/09:30pm 19.2 ESE 19 23 1022.5 - 0.0 - - - - - - -
22/09:00pm 19.4 ESE 19 23 1022.6 - 0.0 - - - - - - -
22/08:30pm 19.4 ESE 20 24 1022.6 - 0.0 - - - - - - -
22/08:00pm 19.3 ESE 21 25 1022.5 - 0.0 - - - - - - -
22/07:30pm 19.3 SE 20 25 1022.4 - 0.0 - - - - - - -
22/07:00pm 19.2 ESE 20 26 1022.3 - 0.0 - - - - - - -
22/06:30pm 19.4 ESE 21 26 1021.9 - 0.0 - - - - - - -
22/06:00pm 19.5 SE 22 27 1021.6 - 0.0 - - - - - - -
22/05:30pm 19.7 SE 22 26 1021.5 - 0.0 - - - - - - -
22/05:00pm 19.9 SE 24 29 1021.3 - 0.0 - - - - - - -
22/04:30pm 20.2 SE 25 28 1021.2 - 0.0 - - - - - - -
22/04:00pm 20.6 SE 23 27 1021.2 - 0.0 - - - - - - -
22/03:30pm 20.9 SE 24 28 1021.0 - 0.0 - - - - - - -
22/03:00pm 21.2 SE 21 25 1021.1 - 0.0 - - - - - - -
22/02:30pm 21.2 SE 21 24 1021.5 - 0.0 - - - - - - -
22/02:00pm 21.5 SE 21 25 1021.8 - 0.0 - - - - - - -
22/01:30pm 21.8 SE 21 25 1022.2 - 0.0 - - - - - - -
22/01:00pm 22.2 SE 20 24 1022.3 - 0.0 - - - - - - -
22/12:30pm 21.9 SE 22 25 1022.7 - 0.0 - - - - - - -
22/12:00pm 21.8 SE 23 26 1022.9 - 0.0 - - - - - - -
22/11:30am 22.0 SE 23 26 1023.3 - 0.0 - - - - - - -
22/11:00am 21.6 SSE 24 29 1023.5 - 0.0 - - - - - - -
22/10:30am 22.1 SE 22 25 1023.8 - 0.0 - - - - - - -
22/10:00am 21.6 SE 22 25 1024.1 - 0.0 - - - - - - -
22/09:30am 21.5 SE 23 26 1023.8 - 0.0 - - - - - - -
22/09:00am 21.6 SSE 22 27 1024.0 - 0.2 - - - - - - -
22/08:30am 21.4 SE 26 30 1023.9 - 0.2 - - - - - - -
22/08:00am 21.0 SE 24 28 1023.7 - 0.2 - - - - - - -
22/07:30am 20.3 SE 26 31 1023.7 - 0.2 - - - - - - -
22/07:00am 20.1 SE 28 34 1023.3 - 0.2 - - - - - - -
22/06:30am 19.5 SE 27 32 1023.1 - 0.2 - - - - - - -
22/06:00am 19.5 SE 25 30 1022.7 - 0.2 - - - - - - -
22/05:30am 19.3 ESE 27 32 1022.4 - 0.2 - - - - - - -
22/05:00am 19.2 SE 26 30 1022.4 - 0.2 - - - - - - -
22/04:30am 19.3 SE 25 30 1022.2 - 0.2 - - - - - - -
22/04:00am 19.3 SE 26 30 1022.2 - 0.2 - - - - - - -
22/03:30am 19.1 ESE 25 31 1022.2 - 0.2 - - - - - - -
22/03:00am 19.2 SE 24 30 1022.4 - 0.2 - - - - - - -
22/02:30am 19.3 SE 26 30 1022.5 - 0.2 - - - - - - -

Other Formats:

Comma delimited format used in spreadsheet applications
http://www.bom.gov.au/fwo/IDQ60701/IDQ60701.94584.axf

JavaScript Object Notation format (JSON) in row-major order
http://www.bom.gov.au/fwo/IDQ60701/IDQ60701.94584.json